sensor_id;sensor_type;location;lat;lon;timestamp;temperature;humidity
15815;DHT22;8008;50.024;8.172;2023-03-23T04:01:11;13.30;99.90
15815;DHT22;8008;50.024;8.172;2023-03-23T04:03:39;13.30;99.90
15815;DHT22;8008;50.024;8.172;2023-03-23T04:06:32;13.20;99.90
15815;DHT22;8008;50.024;8.172;2023-03-23T04:09:04;13.20;99.90
15815;DHT22;8008;50.024;8.172;2023-03-23T04:11:34;13.30;99.90
15815;DHT22;8008;50.024;8.172;2023-03-23T04:14:20;13.40;99.90
15815;DHT22;8008;50.024;8.172;2023-03-23T04:16:48;13.40;99.90
15815;DHT22;8008;50.024;8.172;2023-03-23T04:19:23;13.40;99.90
15815;DHT22;8008;50.024;8.172;2023-03-23T04:21:50;13.40;99.90
15815;DHT22;8008;50.024;8.172;2023-03-23T04:24:18;13.40;99.90
15815;DHT22;8008;50.024;8.172;2023-03-23T04:26:47;13.50;99.90
15815;DHT22;8008;50.024;8.172;2023-03-23T04:29:22;13.40;99.90
15815;DHT22;8008;50.024;8.172;2023-03-23T04:32:10;13.40;99.90
15815;DHT22;8008;50.024;8.172;2023-03-23T04:34:41;13.40;99.90
15815;DHT22;8008;50.024;8.172;2023-03-23T04:37:09;13.40;99.90
15815;DHT22;8008;50.024;8.172;2023-03-23T04:39:39;13.40;99.90
15815;DHT22;8008;50.024;8.172;2023-03-23T04:42:07;13.40;99.90
15815;DHT22;8008;50.024;8.172;2023-03-23T04:44:55;13.30;99.90
15815;DHT22;8008;50.024;8.172;2023-03-23T04:47:35;13.30;99.90
15815;DHT22;8008;50.024;8.172;2023-03-23T04:50:12;13.20;99.90
15815;DHT22;8008;50.024;8.172;2023-03-23T04:52:40;13.30;99.90
15815;DHT22;8008;50.024;8.172;2023-03-23T04:55:12;13.30;99.90
15815;DHT22;8008;50.024;8.172;2023-03-23T04:57:42;13.20;99.90
15815;DHT22;8008;50.024;8.172;2023-03-23T05:00:36;13.20;99.90
15815;DHT22;8008;50.024;8.172;2023-03-23T05:03:05;13.20;99.90
15815;DHT22;8008;50.024;8.172;2023-03-23T05:05:34;13.20;99.90
15815;DHT22;8008;50.024;8.172;2023-03-23T05:08:05;13.10;99.90
15815;DHT22;8008;50.024;8.172;2023-03-23T05:10:36;13.10;99.90
15815;DHT22;8008;50.024;8.172;2023-03-23T05:13:07;13.10;99.90
15815;DHT22;8008;50.024;8.172;2023-03-23T05:15:35;13.00;99.90
15815;DHT22;8008;50.024;8.172;2023-03-23T05:18:05;13.00;99.90
15815;DHT22;8008;50.024;8.172;2023-03-23T05:20:32;13.00;99.90
15815;DHT22;8008;50.024;8.172;2023-03-23T05:23:07;13.00;99.90
15815;DHT22;8008;50.024;8.172;2023-03-23T05:25:35;13.00;99.90
15815;DHT22;8008;50.024;8.172;2023-03-23T05:28:17;12.90;99.90
15815;DHT22;8008;50.024;8.172;2023-03-23T05:31:13;13.00;99.90
15815;DHT22;8008;50.024;8.172;2023-03-23T05:33:42;12.90;99.90
15815;DHT22;8008;50.024;8.172;2023-03-23T05:36:21;12.90;99.90
15815;DHT22;8008;50.024;8.172;2023-03-23T05:39:07;12.90;99.90
15815;DHT22;8008;50.024;8.172;2023-03-23T05:41:54;12.90;99.90
15815;DHT22;8008;50.024;8.172;2023-03-23T05:44:26;12.80;99.90
15815;DHT22;8008;50.024;8.172;2023-03-23T05:46:56;12.80;99.90
15815;DHT22;8008;50.024;8.172;2023-03-23T05:49:25;12.80;99.90
15815;DHT22;8008;50.024;8.172;2023-03-23T05:51:53;12.80;99.90
15815;DHT22;8008;50.024;8.172;2023-03-23T05:54:20;12.80;99.90
15815;DHT22;8008;50.024;8.172;2023-03-23T05:56:48;12.80;99.90
15815;DHT22;8008;50.024;8.172;2023-03-23T05:59:23;12.70;99.90
15815;DHT22;8008;50.024;8.172;2023-03-23T06:01:53;12.80;99.90
15815;DHT22;8008;50.024;8.172;2023-03-23T06:04:21;12.80;99.90
15815;DHT22;8008;50.024;8.172;2023-03-23T06:07:02;12.70;99.90
15815;DHT22;8008;50.024;8.172;2023-03-23T06:09:30;12.70;99.90
15815;DHT22;8008;50.024;8.172;2023-03-23T06:12:03;12.80;99.90
15815;DHT22;8008;50.024;8.172;2023-03-23T06:14:57;12.70;99.90
15815;DHT22;8008;50.024;8.172;2023-03-23T06:17:39;12.70;99.90
15815;DHT22;8008;50.024;8.172;2023-03-23T06:20:10;12.70;99.90
15815;DHT22;8008;50.024;8.172;2023-03-23T06:22:41;12.70;99.90
15815;DHT22;8008;50.024;8.172;2023-03-23T06:25:26;12.70;99.90
15815;DHT22;8008;50.024;8.172;2023-03-23T06:27:53;12.70;99.90
15815;DHT22;8008;50.024;8.172;2023-03-23T06:30:24;12.70;99.90
15815;DHT22;8008;50.024;8.172;2023-03-23T06:32:53;12.70;99.90
15815;DHT22;8008;50.024;8.172;2023-03-23T06:35:41;12.80;99.90
15815;DHT22;8008;50.024;8.172;2023-03-23T06:38:42;12.80;99.90
15815;DHT22;8008;50.024;8.172;2023-03-23T06:41:11;12.80;99.90
15815;DHT22;8008;50.024;8.172;2023-03-23T06:43:39;12.80;99.90
15815;DHT22;8008;50.024;8.172;2023-03-23T06:46:21;12.80;99.90
15815;DHT22;8008;50.024;8.172;2023-03-23T06:48:54;12.80;99.90
15815;DHT22;8008;50.024;8.172;2023-03-23T06:51:33;12.90;99.90
15815;DHT22;8008;50.024;8.172;2023-03-23T06:54:01;12.90;99.90
15815;DHT22;8008;50.024;8.172;2023-03-23T06:56:31;12.90;99.90
15815;DHT22;8008;50.024;8.172;2023-03-23T06:58:58;12.90;99.90
15815;DHT22;8008;50.024;8.172;2023-03-23T07:01:25;12.80;99.90
15815;DHT22;8008;50.024;8.172;2023-03-23T07:03:58;12.90;99.90
15815;DHT22;8008;50.024;8.172;2023-03-23T07:06:54;12.80;99.90
15815;DHT22;8008;50.024;8.172;2023-03-23T07:09:23;12.80;99.90
15815;DHT22;8008;50.024;8.172;2023-03-23T07:11:51;12.90;99.90
15815;DHT22;8008;50.024;8.172;2023-03-23T07:14:29;12.80;99.90
15815;DHT22;8008;50.024;8.172;2023-03-23T07:16:57;12.80;99.90
15815;DHT22;8008;50.024;8.172;2023-03-23T07:19:24;12.80;99.90
15815;DHT22;8008;50.024;8.172;2023-03-23T07:21:53;12.80;99.90
15815;DHT22;8008;50.024;8.172;2023-03-23T07:24:24;12.80;99.90
15815;DHT22;8008;50.024;8.172;2023-03-23T07:27:13;12.80;99.90
15815;DHT22;8008;50.024;8.172;2023-03-23T07:29:41;12.80;99.90
15815;DHT22;8008;50.024;8.172;2023-03-23T07:32:15;12.90;99.90
15815;DHT22;8008;50.024;8.172;2023-03-23T07:34:42;13.00;99.90
15815;DHT22;8008;50.024;8.172;2023-03-23T07:37:24;13.00;99.90
15815;DHT22;8008;50.024;8.172;2023-03-23T07:39:53;13.10;99.90
15815;DHT22;8008;50.024;8.172;2023-03-23T07:42:20;13.10;99.90
15815;DHT22;8008;50.024;8.172;2023-03-23T07:44:53;13.20;99.90
15815;DHT22;8008;50.024;8.172;2023-03-23T07:47:20;13.20;99.90
15815;DHT22;8008;50.024;8.172;2023-03-23T07:49:48;13.30;99.90
15815;DHT22;8008;50.024;8.172;2023-03-23T07:52:22;13.30;99.90
15815;DHT22;8008;50.024;8.172;2023-03-23T07:54:50;13.30;99.90
15815;DHT22;8008;50.024;8.172;2023-03-23T07:57:36;13.30;99.90
15815;DHT22;8008;50.024;8.172;2023-03-23T08:00:05;13.30;99.90
15815;DHT22;8008;50.024;8.172;2023-03-23T08:02:41;13.30;99.90
15815;DHT22;8008;50.024;8.172;2023-03-23T08:05:31;13.30;99.90
15815;DHT22;8008;50.024;8.172;2023-03-23T08:08:15;13.40;99.90
15815;DHT22;8008;50.024;8.172;2023-03-23T08:11:00;13.40;99.90
15815;DHT22;8008;50.024;8.172;2023-03-23T08:13:48;13.40;99.90
15815;DHT22;8008;50.024;8.172;2023-03-23T08:16:31;13.40;99.90
15815;DHT22;8008;50.024;8.172;2023-03-23T08:19:18;13.50;99.90
15815;DHT22;8008;50.024;8.172;2023-03-23T08:22:04;13.50;99.90
15815;DHT22;8008;50.024;8.172;2023-03-23T08:24:56;13.60;99.90
15815;DHT22;8008;50.024;8.172;2023-03-23T08:27:38;13.60;99.90
15815;DHT22;8008;50.024;8.172;2023-03-23T08:30:30;13.60;99.90
15815;DHT22;8008;50.024;8.172;2023-03-23T08:33:25;13.70;99.90
15815;DHT22;8008;50.024;8.172;2023-03-23T08:36:12;13.70;99.90
15815;DHT22;8008;50.024;8.172;2023-03-23T08:38:59;13.80;99.90
15815;DHT22;8008;50.024;8.172;2023-03-23T08:41:47;13.90;99.90
15815;DHT22;8008;50.024;8.172;2023-03-23T08:44:20;14.00;99.90
15815;DHT22;8008;50.024;8.172;2023-03-23T08:47:12;14.10;99.90
15815;DHT22;8008;50.024;8.172;2023-03-23T08:50:08;14.20;99.90
15815;DHT22;8008;50.024;8.172;2023-03-23T08:52:54;14.20;99.90
15815;DHT22;8008;50.024;8.172;2023-03-23T08:55:39;14.20;99.90
15815;DHT22;8008;50.024;8.172;2023-03-23T08:58:32;14.30;99.90
15815;DHT22;8008;50.024;8.172;2023-03-23T09:01:08;14.30;99.90
15815;DHT22;8008;50.024;8.172;2023-03-23T09:03:44;14.40;99.90
15815;DHT22;8008;50.024;8.172;2023-03-23T09:06:30;14.40;99.90
15815;DHT22;8008;50.024;8.172;2023-03-23T09:08:58;14.40;99.90
15815;DHT22;8008;50.024;8.172;2023-03-23T09:11:26;14.50;99.90
15815;DHT22;8008;50.024;8.172;2023-03-23T09:13:53;14.60;99.90
15815;DHT22;8008;50.024;8.172;2023-03-23T09:16:20;14.60;99.90
15815;DHT22;8008;50.024;8.172;2023-03-23T09:18:49;14.70;99.90
15815;DHT22;8008;50.024;8.172;2023-03-23T09:21:16;14.80;99.90
15815;DHT22;8008;50.024;8.172;2023-03-23T09:23:43;14.80;99.90
15815;DHT22;8008;50.024;8.172;2023-03-23T09:26:11;14.90;99.90
15815;DHT22;8008;50.024;8.172;2023-03-23T09:28:38;14.90;99.90
15815;DHT22;8008;50.024;8.172;2023-03-23T09:31:05;14.80;99.90
15815;DHT22;8008;50.024;8.172;2023-03-23T09:33:32;14.80;99.90
15815;DHT22;8008;50.024;8.172;2023-03-23T09:36:03;14.70;99.90
15815;DHT22;8008;50.024;8.172;2023-03-23T09:38:33;14.70;99.90
15815;DHT22;8008;50.024;8.172;2023-03-23T09:41:08;14.60;99.90
15815;DHT22;8008;50.024;8.172;2023-03-23T09:43:50;14.50;99.90
15815;DHT22;8008;50.024;8.172;2023-03-23T09:46:41;14.30;99.90
15815;DHT22;8008;50.024;8.172;2023-03-23T09:49:13;14.30;99.90
15815;DHT22;8008;50.024;8.172;2023-03-23T09:51:45;14.30;99.90
15815;DHT22;8008;50.024;8.172;2023-03-23T09:54:21;14.20;99.90
15815;DHT22;8008;50.024;8.172;2023-03-23T09:56:50;14.20;99.90
15815;DHT22;8008;50.024;8.172;2023-03-23T09:59:22;14.20;99.90
15815;DHT22;8008;50.024;8.172;2023-03-23T10:01:51;14.10;99.90
15815;DHT22;8008;50.024;8.172;2023-03-23T10:04:30;14.10;99.90
15815;DHT22;8008;50.024;8.172;2023-03-23T10:07:11;14.10;99.90
15815;DHT22;8008;50.024;8.172;2023-03-23T10:09:43;14.10;99.90
15815;DHT22;8008;50.024;8.172;2023-03-23T10:12:19;14.10;99.90
15815;DHT22;8008;50.024;8.172;2023-03-23T10:17:46;14.30;99.90
15815;DHT22;8008;50.024;8.172;2023-03-23T10:20:35;14.40;99.90
15815;DHT22;8008;50.024;8.172;2023-03-23T10:23:34;14.40;99.90
15815;DHT22;8008;50.024;8.172;2023-03-23T10:26:06;14.40;99.90
15815;DHT22;8008;50.024;8.172;2023-03-23T10:28:37;14.40;99.90
15815;DHT22;8008;50.024;8.172;2023-03-23T10:31:07;14.40;99.90
15815;DHT22;8008;50.024;8.172;2023-03-23T10:33:39;14.50;99.90
15815;DHT22;8008;50.024;8.172;2023-03-23T10:36:12;14.50;99.90
15815;DHT22;8008;50.024;8.172;2023-03-23T10:38:48;14.50;99.90
15815;DHT22;8008;50.024;8.172;2023-03-23T10:41:17;14.40;99.90
15815;DHT22;8008;50.024;8.172;2023-03-23T10:43:45;14.50;99.90
15815;DHT22;8008;50.024;8.172;2023-03-23T10:46:23;14.60;99.90
15815;DHT22;8008;50.024;8.172;2023-03-23T10:48:53;14.50;99.90
15815;DHT22;8008;50.024;8.172;2023-03-23T10:51:27;14.60;99.90
15815;DHT22;8008;50.024;8.172;2023-03-23T10:54:00;14.60;99.90
15815;DHT22;8008;50.024;8.172;2023-03-23T10:56:29;14.60;99.90
15815;DHT22;8008;50.024;8.172;2023-03-23T10:59:11;14.70;99.90
15815;DHT22;8008;50.024;8.172;2023-03-23T11:01:41;14.90;99.90
15815;DHT22;8008;50.024;8.172;2023-03-23T11:04:12;14.80;99.90
15815;DHT22;8008;50.024;8.172;2023-03-23T11:06:45;15.00;99.90
15815;DHT22;8008;50.024;8.172;2023-03-23T11:09:15;15.10;99.90
15815;DHT22;8008;50.024;8.172;2023-03-23T11:11:47;15.30;99.90
15815;DHT22;8008;50.024;8.172;2023-03-23T11:14:18;15.50;99.90
15815;DHT22;8008;50.024;8.172;2023-03-23T11:16:50;15.50;99.90
15815;DHT22;8008;50.024;8.172;2023-03-23T11:19:22;15.50;99.90
15815;DHT22;8008;50.024;8.172;2023-03-23T11:21:51;15.60;99.90
15815;DHT22;8008;50.024;8.172;2023-03-23T11:24:23;15.70;99.90
15815;DHT22;8008;50.024;8.172;2023-03-23T11:26:50;15.90;99.90
15815;DHT22;8008;50.024;8.172;2023-03-23T11:29:20;16.10;99.90
15815;DHT22;8008;50.024;8.172;2023-03-23T11:31:52;16.30;99.90
15815;DHT22;8008;50.024;8.172;2023-03-23T11:34:24;16.50;99.90
15815;DHT22;8008;50.024;8.172;2023-03-23T11:36:53;16.50;99.90
15815;DHT22;8008;50.024;8.172;2023-03-23T11:39:25;16.30;99.90
15815;DHT22;8008;50.024;8.172;2023-03-23T11:41:52;16.20;99.90
15815;DHT22;8008;50.024;8.172;2023-03-23T11:44:21;16.00;99.90
15815;DHT22;8008;50.024;8.172;2023-03-23T11:46:56;15.70;99.90
15815;DHT22;8008;50.024;8.172;2023-03-23T11:52:19;15.20;99.90
15815;DHT22;8008;50.024;8.172;2023-03-23T11:54:54;15.00;99.90
15815;DHT22;8008;50.024;8.172;2023-03-23T11:57:23;15.00;99.90
15815;DHT22;8008;50.024;8.172;2023-03-23T11:59:50;15.10;99.90
15815;DHT22;8008;50.024;8.172;2023-03-23T12:02:32;15.20;99.90
15815;DHT22;8008;50.024;8.172;2023-03-23T12:05:28;15.30;99.90
15815;DHT22;8008;50.024;8.172;2023-03-23T12:08:11;15.50;99.90
15815;DHT22;8008;50.024;8.172;2023-03-23T12:10:48;15.70;99.90
15815;DHT22;8008;50.024;8.172;2023-03-23T12:13:39;15.90;99.90
15815;DHT22;8008;50.024;8.172;2023-03-23T12:16:21;15.90;99.90
15815;DHT22;8008;50.024;8.172;2023-03-23T12:18:56;15.90;99.90
15815;DHT22;8008;50.024;8.172;2023-03-23T12:21:32;15.80;99.90
15815;DHT22;8008;50.024;8.172;2023-03-23T12:24:06;15.70;99.90
15815;DHT22;8008;50.024;8.172;2023-03-23T12:26:43;15.50;99.90
15815;DHT22;8008;50.024;8.172;2023-03-23T12:29:31;15.40;99.90
15815;DHT22;8008;50.024;8.172;2023-03-23T12:35:02;15.20;99.90
15815;DHT22;8008;50.024;8.172;2023-03-23T12:37:47;15.20;99.90
15815;DHT22;8008;50.024;8.172;2023-03-23T12:40:30;15.40;99.90
15815;DHT22;8008;50.024;8.172;2023-03-23T12:43:04;15.50;99.90
15815;DHT22;8008;50.024;8.172;2023-03-23T12:45:55;15.40;99.90
15815;DHT22;8008;50.024;8.172;2023-03-23T12:48:28;15.60;99.90
15815;DHT22;8008;50.024;8.172;2023-03-23T12:51:09;15.80;99.90
15815;DHT22;8008;50.024;8.172;2023-03-23T12:53:43;16.00;99.90
15815;DHT22;8008;50.024;8.172;2023-03-23T12:56:16;16.00;99.90
15815;DHT22;8008;50.024;8.172;2023-03-23T12:58:47;16.10;99.90
15815;DHT22;8008;50.024;8.172;2023-03-23T13:01:19;16.20;99.90
15815;DHT22;8008;50.024;8.172;2023-03-23T13:03:53;16.30;99.90
15815;DHT22;8008;50.024;8.172;2023-03-23T13:06:25;16.10;99.90
15815;DHT22;8008;50.024;8.172;2023-03-23T13:08:58;16.20;99.90
15815;DHT22;8008;50.024;8.172;2023-03-23T13:11:30;16.20;99.90
15815;DHT22;8008;50.024;8.172;2023-03-23T13:14:12;16.00;99.90
15815;DHT22;8008;50.024;8.172;2023-03-23T13:16:46;15.90;99.90
15815;DHT22;8008;50.024;8.172;2023-03-23T13:19:24;16.10;99.90
15815;DHT22;8008;50.024;8.172;2023-03-23T13:22:00;16.20;99.90
15815;DHT22;8008;50.024;8.172;2023-03-23T13:24:31;16.20;99.90
15815;DHT22;8008;50.024;8.172;2023-03-23T13:27:00;16.10;99.90
15815;DHT22;8008;50.024;8.172;2023-03-23T13:29:28;16.00;99.90
15815;DHT22;8008;50.024;8.172;2023-03-23T13:32:06;16.10;99.90
15815;DHT22;8008;50.024;8.172;2023-03-23T13:34:35;15.90;99.90
15815;DHT22;8008;50.024;8.172;2023-03-23T13:37:04;15.90;99.90
15815;DHT22;8008;50.024;8.172;2023-03-23T13:39:35;15.90;99.90
15815;DHT22;8008;50.024;8.172;2023-03-23T13:42:18;15.90;99.90
15815;DHT22;8008;50.024;8.172;2023-03-23T13:45:05;16.00;99.90
15815;DHT22;8008;50.024;8.172;2023-03-23T13:47:38;15.90;99.90
15815;DHT22;8008;50.024;8.172;2023-03-23T13:50:11;15.80;99.90
15815;DHT22;8008;50.024;8.172;2023-03-23T13:52:46;15.60;99.90
15815;DHT22;8008;50.024;8.172;2023-03-23T13:55:29;15.50;99.90
15815;DHT22;8008;50.024;8.172;2023-03-23T13:57:57;15.40;99.90
15815;DHT22;8008;50.024;8.172;2023-03-23T14:00:35;15.50;99.90
15815;DHT22;8008;50.024;8.172;2023-03-23T14:03:11;15.50;99.90
15815;DHT22;8008;50.024;8.172;2023-03-23T14:05:40;15.50;99.90
15815;DHT22;8008;50.024;8.172;2023-03-23T14:08:14;15.50;99.90
15815;DHT22;8008;50.024;8.172;2023-03-23T14:10:51;15.50;99.90
15815;DHT22;8008;50.024;8.172;2023-03-23T14:13:25;15.50;99.90
15815;DHT22;8008;50.024;8.172;2023-03-23T14:16:00;15.50;99.90
15815;DHT22;8008;50.024;8.172;2023-03-23T14:18:32;15.70;99.90
15815;DHT22;8008;50.024;8.172;2023-03-23T14:21:01;15.70;99.90
15815;DHT22;8008;50.024;8.172;2023-03-23T14:23:31;15.70;99.90
15815;DHT22;8008;50.024;8.172;2023-03-23T14:26:00;15.70;99.90
15815;DHT22;8008;50.024;8.172;2023-03-23T14:28:37;15.60;99.90
15815;DHT22;8008;50.024;8.172;2023-03-23T14:31:14;15.60;99.90
15815;DHT22;8008;50.024;8.172;2023-03-23T14:33:41;15.70;99.90
15815;DHT22;8008;50.024;8.172;2023-03-23T14:36:08;15.80;99.90
15815;DHT22;8008;50.024;8.172;2023-03-23T14:38:36;15.80;99.90
15815;DHT22;8008;50.024;8.172;2023-03-23T14:41:05;15.80;99.90
15815;DHT22;8008;50.024;8.172;2023-03-23T14:43:34;15.80;99.90
15815;DHT22;8008;50.024;8.172;2023-03-23T14:46:07;15.80;99.90
15815;DHT22;8008;50.024;8.172;2023-03-23T14:48:36;15.90;99.90
15815;DHT22;8008;50.024;8.172;2023-03-23T14:51:05;15.80;99.90
15815;DHT22;8008;50.024;8.172;2023-03-23T14:53:35;15.70;99.90
15815;DHT22;8008;50.024;8.172;2023-03-23T14:56:06;15.50;99.90
15815;DHT22;8008;50.024;8.172;2023-03-23T14:58:35;15.40;99.90
15815;DHT22;8008;50.024;8.172;2023-03-23T15:01:06;15.50;99.90
15815;DHT22;8008;50.024;8.172;2023-03-23T15:03:36;15.50;99.90
15815;DHT22;8008;50.024;8.172;2023-03-23T15:06:07;15.40;99.90
15815;DHT22;8008;50.024;8.172;2023-03-23T15:08:39;15.40;99.90
15815;DHT22;8008;50.024;8.172;2023-03-23T15:11:10;15.50;99.90
15815;DHT22;8008;50.024;8.172;2023-03-23T15:13:44;15.60;99.90
15815;DHT22;8008;50.024;8.172;2023-03-23T15:16:17;15.60;99.90
15815;DHT22;8008;50.024;8.172;2023-03-23T15:18:49;15.60;99.90
15815;DHT22;8008;50.024;8.172;2023-03-23T15:21:23;15.40;99.90
15815;DHT22;8008;50.024;8.172;2023-03-23T15:23:51;15.50;99.90
15815;DHT22;8008;50.024;8.172;2023-03-23T15:26:24;15.50;99.90
15815;DHT22;8008;50.024;8.172;2023-03-23T15:29:01;15.60;99.90
15815;DHT22;8008;50.024;8.172;2023-03-23T15:31:30;15.60;99.90
15815;DHT22;8008;50.024;8.172;2023-03-23T15:34:02;15.60;99.90
15815;DHT22;8008;50.024;8.172;2023-03-23T15:36:33;15.50;99.90
15815;DHT22;8008;50.024;8.172;2023-03-23T15:39:00;15.50;99.90
15815;DHT22;8008;50.024;8.172;2023-03-23T15:41:30;15.50;99.90
15815;DHT22;8008;50.024;8.172;2023-03-23T15:44:09;15.50;99.90
15815;DHT22;8008;50.024;8.172;2023-03-23T15:46:49;15.40;99.90
15815;DHT22;8008;50.024;8.172;2023-03-23T15:49:16;15.50;99.90
15815;DHT22;8008;50.024;8.172;2023-03-23T15:51:43;15.50;99.90
15815;DHT22;8008;50.024;8.172;2023-03-23T15:54:13;15.40;99.90
15815;DHT22;8008;50.024;8.172;2023-03-23T15:56:41;15.40;99.90
15815;DHT22;8008;50.024;8.172;2023-03-23T15:59:10;15.40;99.90
15815;DHT22;8008;50.024;8.172;2023-03-23T16:01:40;15.40;99.90
15815;DHT22;8008;50.024;8.172;2023-03-23T16:04:12;15.40;99.90
15815;DHT22;8008;50.024;8.172;2023-03-23T16:06:41;15.40;99.90
15815;DHT22;8008;50.024;8.172;2023-03-23T16:09:13;15.30;99.90
15815;DHT22;8008;50.024;8.172;2023-03-23T16:11:41;15.30;99.90
15815;DHT22;8008;50.024;8.172;2023-03-23T16:14:35;15.30;99.90
15815;DHT22;8008;50.024;8.172;2023-03-23T16:17:03;15.30;99.90
15815;DHT22;8008;50.024;8.172;2023-03-23T16:19:32;15.20;99.90
15815;DHT22;8008;50.024;8.172;2023-03-23T16:22:00;15.00;99.90
15815;DHT22;8008;50.024;8.172;2023-03-23T16:24:28;15.00;99.90
15815;DHT22;8008;50.024;8.172;2023-03-23T16:26:56;15.00;99.90
15815;DHT22;8008;50.024;8.172;2023-03-23T16:29:23;15.00;99.90
15815;DHT22;8008;50.024;8.172;2023-03-23T16:32:11;15.00;99.90
15815;DHT22;8008;50.024;8.172;2023-03-23T16:34:41;14.90;99.90
15815;DHT22;8008;50.024;8.172;2023-03-23T16:37:09;14.80;99.90
15815;DHT22;8008;50.024;8.172;2023-03-23T16:39:38;14.80;99.90
15815;DHT22;8008;50.024;8.172;2023-03-23T16:42:06;14.80;99.90
15815;DHT22;8008;50.024;8.172;2023-03-23T16:44:34;14.80;99.90
15815;DHT22;8008;50.024;8.172;2023-03-23T16:47:01;14.80;99.90
15815;DHT22;8008;50.024;8.172;2023-03-23T16:49:29;14.70;99.90
15815;DHT22;8008;50.024;8.172;2023-03-23T16:51:58;14.70;99.90
15815;DHT22;8008;50.024;8.172;2023-03-23T16:54:26;14.60;99.90
15815;DHT22;8008;50.024;8.172;2023-03-23T16:56:54;14.60;99.90
15815;DHT22;8008;50.024;8.172;2023-03-23T16:59:22;14.60;99.90
15815;DHT22;8008;50.024;8.172;2023-03-23T17:01:50;14.50;99.90
15815;DHT22;8008;50.024;8.172;2023-03-23T17:04:18;14.50;99.90
15815;DHT22;8008;50.024;8.172;2023-03-23T17:06:46;14.40;99.90
15815;DHT22;8008;50.024;8.172;2023-03-23T17:09:15;14.40;99.90
15815;DHT22;8008;50.024;8.172;2023-03-23T17:11:43;14.40;99.90
15815;DHT22;8008;50.024;8.172;2023-03-23T17:14:11;14.30;99.90
15815;DHT22;8008;50.024;8.172;2023-03-23T17:16:39;14.30;99.90
15815;DHT22;8008;50.024;8.172;2023-03-23T17:19:07;14.30;99.90
15815;DHT22;8008;50.024;8.172;2023-03-23T17:21:35;14.30;99.90
15815;DHT22;8008;50.024;8.172;2023-03-23T17:24:03;14.20;99.90
15815;DHT22;8008;50.024;8.172;2023-03-23T17:26:33;14.20;99.90
15815;DHT22;8008;50.024;8.172;2023-03-23T17:29:01;14.20;99.90
15815;DHT22;8008;50.024;8.172;2023-03-23T17:31:30;14.20;99.90
15815;DHT22;8008;50.024;8.172;2023-03-23T17:33:58;14.20;99.90
15815;DHT22;8008;50.024;8.172;2023-03-23T17:36:26;14.10;99.90
15815;DHT22;8008;50.024;8.172;2023-03-23T17:38:54;14.10;99.90
15815;DHT22;8008;50.024;8.172;2023-03-23T17:41:22;14.10;99.90
15815;DHT22;8008;50.024;8.172;2023-03-23T17:43:51;14.10;99.90
15815;DHT22;8008;50.024;8.172;2023-03-23T17:46:19;14.00;99.90
15815;DHT22;8008;50.024;8.172;2023-03-23T17:48:47;14.00;99.90
15815;DHT22;8008;50.024;8.172;2023-03-23T17:51:15;14.00;99.90
15815;DHT22;8008;50.024;8.172;2023-03-23T17:53:43;13.90;99.90
15815;DHT22;8008;50.024;8.172;2023-03-23T17:56:11;13.90;99.90
15815;DHT22;8008;50.024;8.172;2023-03-23T17:58:39;13.90;99.90
15815;DHT22;8008;50.024;8.172;2023-03-23T18:01:08;13.90;99.90
15815;DHT22;8008;50.024;8.172;2023-03-23T18:03:36;13.90;99.90
15815;DHT22;8008;50.024;8.172;2023-03-23T18:06:05;13.80;99.90
15815;DHT22;8008;50.024;8.172;2023-03-23T18:08:34;13.80;99.90
15815;DHT22;8008;50.024;8.172;2023-03-23T18:11:03;13.80;99.90
15815;DHT22;8008;50.024;8.172;2023-03-23T18:13:33;13.80;99.90
15815;DHT22;8008;50.024;8.172;2023-03-23T18:16:02;13.80;99.90
15815;DHT22;8008;50.024;8.172;2023-03-23T18:18:32;13.80;99.90
15815;DHT22;8008;50.024;8.172;2023-03-23T18:21:02;13.80;99.90
15815;DHT22;8008;50.024;8.172;2023-03-23T18:23:30;13.70;99.90
15815;DHT22;8008;50.024;8.172;2023-03-23T18:26:10;13.70;99.90
15815;DHT22;8008;50.024;8.172;2023-03-23T18:28:39;13.80;99.90
15815;DHT22;8008;50.024;8.172;2023-03-23T18:31:09;13.70;99.90
15815;DHT22;8008;50.024;8.172;2023-03-23T18:33:39;13.70;99.90
15815;DHT22;8008;50.024;8.172;2023-03-23T18:36:08;13.70;99.90
15815;DHT22;8008;50.024;8.172;2023-03-23T18:38:37;13.70;99.90
15815;DHT22;8008;50.024;8.172;2023-03-23T18:41:05;13.70;99.90
15815;DHT22;8008;50.024;8.172;2023-03-23T18:43:33;13.60;99.90
15815;DHT22;8008;50.024;8.172;2023-03-23T18:46:02;13.60;99.90
15815;DHT22;8008;50.024;8.172;2023-03-23T18:48:30;13.60;99.90
15815;DHT22;8008;50.024;8.172;2023-03-23T18:51:00;13.60;99.90
15815;DHT22;8008;50.024;8.172;2023-03-23T18:53:29;13.60;99.90
15815;DHT22;8008;50.024;8.172;2023-03-23T18:56:04;13.60;99.90
15815;DHT22;8008;50.024;8.172;2023-03-23T18:58:32;13.50;99.90
15815;DHT22;8008;50.024;8.172;2023-03-23T19:01:05;13.60;99.90
15815;DHT22;8008;50.024;8.172;2023-03-23T19:03:34;13.60;99.90
15815;DHT22;8008;50.024;8.172;2023-03-23T19:06:04;13.60;99.90
15815;DHT22;8008;50.024;8.172;2023-03-23T19:08:32;13.60;99.90
15815;DHT22;8008;50.024;8.172;2023-03-23T19:11:02;13.70;99.90
15815;DHT22;8008;50.024;8.172;2023-03-23T19:13:32;13.80;99.90
15815;DHT22;8008;50.024;8.172;2023-03-23T19:16:03;13.80;99.90
15815;DHT22;8008;50.024;8.172;2023-03-23T19:18:32;13.80;99.90
15815;DHT22;8008;50.024;8.172;2023-03-23T19:21:00;13.80;99.90
15815;DHT22;8008;50.024;8.172;2023-03-23T19:23:33;13.80;99.90
15815;DHT22;8008;50.024;8.172;2023-03-23T19:26:00;13.80;99.90
15815;DHT22;8008;50.024;8.172;2023-03-23T19:28:28;13.80;99.90
15815;DHT22;8008;50.024;8.172;2023-03-23T19:31:16;13.90;99.90
15815;DHT22;8008;50.024;8.172;2023-03-23T19:33:47;13.80;99.90
15815;DHT22;8008;50.024;8.172;2023-03-23T19:36:15;13.80;99.90
15815;DHT22;8008;50.024;8.172;2023-03-23T19:38:45;13.80;99.90
15815;DHT22;8008;50.024;8.172;2023-03-23T19:41:15;13.90;99.90
15815;DHT22;8008;50.024;8.172;2023-03-23T19:43:45;13.80;99.90
15815;DHT22;8008;50.024;8.172;2023-03-23T19:46:13;13.90;99.90
15815;DHT22;8008;50.024;8.172;2023-03-23T19:48:41;13.80;99.90
15815;DHT22;8008;50.024;8.172;2023-03-23T19:51:11;13.80;99.90
15815;DHT22;8008;50.024;8.172;2023-03-23T19:53:39;13.80;99.90
15815;DHT22;8008;50.024;8.172;2023-03-23T19:56:11;13.80;99.90
15815;DHT22;8008;50.024;8.172;2023-03-23T19:58:39;13.70;99.90
15815;DHT22;8008;50.024;8.172;2023-03-23T20:01:07;13.80;99.90
15815;DHT22;8008;50.024;8.172;2023-03-23T20:03:36;13.70;99.90
15815;DHT22;8008;50.024;8.172;2023-03-23T20:06:06;13.70;99.90
15815;DHT22;8008;50.024;8.172;2023-03-23T20:08:36;13.70;99.90
15815;DHT22;8008;50.024;8.172;2023-03-23T20:11:12;13.80;99.90
15815;DHT22;8008;50.024;8.172;2023-03-23T20:13:40;13.80;99.90
15815;DHT22;8008;50.024;8.172;2023-03-23T20:16:09;13.90;99.90
15815;DHT22;8008;50.024;8.172;2023-03-23T20:18:37;13.90;99.90
15815;DHT22;8008;50.024;8.172;2023-03-23T20:21:08;14.00;99.90
15815;DHT22;8008;50.024;8.172;2023-03-23T20:23:38;14.00;99.90
15815;DHT22;8008;50.024;8.172;2023-03-23T20:26:08;14.00;99.90
15815;DHT22;8008;50.024;8.172;2023-03-23T20:28:39;14.00;99.90
15815;DHT22;8008;50.024;8.172;2023-03-23T20:31:13;14.00;99.90